createdAt,value
2023-02-02T00:01:28.155Z,68.18
2023-02-02T00:06:32.502Z,68.20
2023-02-02T00:11:37.025Z,68.08
2023-02-02T00:16:45.299Z,68.43
2023-02-02T00:21:48.785Z,68.01
2023-02-02T00:26:55.174Z,68.00
2023-02-02T00:31:58.982Z,68.18
2023-02-02T00:37:02.142Z,68.22
2023-02-02T00:42:06.870Z,68.38
2023-02-02T00:47:10.060Z,68.15
2023-02-02T00:52:13.215Z,67.75
2023-02-02T00:57:17.814Z,67.89
2023-02-02T01:02:20.950Z,68.14
2023-02-02T01:07:24.267Z,68.16
2023-02-02T01:12:28.906Z,68.30
2023-02-02T01:17:32.085Z,68.45
2023-02-02T01:22:35.526Z,68.56
2023-02-02T01:27:40.220Z,68.34
2023-02-02T01:32:43.404Z,68.06
2023-02-02T01:37:46.607Z,67.98
2023-02-02T01:42:51.199Z,67.76
2023-02-02T01:47:57.564Z,67.72
2023-02-02T01:53:02.610Z,67.54
2023-02-02T01:58:12.159Z,67.13
2023-02-02T02:03:18.578Z,66.71
2023-02-02T02:08:26.023Z,67.34
2023-02-02T02:13:46.770Z,66.89
2023-02-02T02:18:56.533Z,67.20
2023-02-02T02:24:44.615Z,67.22
2023-02-02T02:30:10.458Z,66.62
2023-02-02T02:35:24.876Z,67.07
2023-02-02T02:40:33.433Z,66.53
2023-02-02T02:45:38.519Z,66.79
2023-02-02T02:50:43.128Z,66.57
2023-02-02T02:55:53.163Z,66.58
2023-02-02T03:01:06.188Z,66.28
2023-02-02T03:06:16.538Z,66.82
2023-02-02T03:11:19.850Z,66.56
2023-02-02T03:16:23.156Z,66.76
2023-02-02T03:21:27.827Z,66.95
2023-02-02T03:26:31.277Z,66.77
2023-02-02T03:31:34.812Z,66.53
2023-02-02T03:36:39.449Z,66.59
2023-02-02T03:41:42.739Z,66.42
2023-02-02T03:46:46.083Z,66.00
2023-02-02T03:51:50.771Z,65.99
2023-02-02T03:56:54.075Z,65.79
2023-02-02T04:01:57.299Z,65.68
2023-02-02T04:07:02.577Z,65.76
2023-02-02T04:12:06.084Z,65.14
2023-02-02T04:17:09.349Z,65.27
2023-02-02T04:22:14.066Z,64.89
2023-02-02T04:27:17.333Z,65.21
2023-02-02T04:32:20.774Z,65.37
2023-02-02T04:37:25.474Z,65.00
2023-02-02T04:42:28.715Z,65.25
2023-02-02T04:47:32.010Z,65.14
2023-02-02T04:52:36.688Z,64.65
2023-02-02T04:57:39.927Z,64.81
2023-02-02T05:02:43.703Z,64.79
2023-02-02T05:07:48.326Z,65.10
2023-02-02T05:12:53.856Z,64.86
2023-02-02T05:17:57.102Z,65.27
2023-02-02T05:23:01.764Z,64.86
2023-02-02T05:28:05.059Z,65.51
2023-02-02T05:33:08.388Z,65.49
2023-02-02T05:38:13.137Z,65.09
2023-02-02T05:43:16.327Z,64.91
2023-02-02T05:48:19.618Z,65.75
2023-02-02T05:53:24.485Z,65.25
2023-02-02T05:58:28.264Z,65.38
2023-02-02T06:03:31.672Z,65.18
2023-02-02T06:08:37.430Z,65.16
2023-02-02T06:13:40.751Z,65.10
2023-02-02T06:18:44.063Z,64.92
2023-02-02T06:23:49.942Z,65.09
2023-02-02T06:28:55.052Z,65.64
2023-02-02T06:33:59.871Z,65.21
2023-02-02T06:39:06.089Z,65.11
2023-02-02T06:44:09.353Z,65.70
2023-02-02T06:49:12.618Z,64.72
2023-02-02T06:54:17.487Z,65.01
2023-02-02T06:59:20.940Z,64.89
2023-02-02T07:04:24.202Z,65.12
2023-02-02T07:09:28.845Z,65.38
2023-02-02T07:14:32.016Z,65.32
2023-02-02T07:19:35.268Z,65.03
2023-02-02T07:24:39.941Z,65.57
2023-02-02T07:29:43.144Z,65.39
2023-02-02T07:34:46.377Z,65.57
2023-02-02T07:39:51.030Z,64.93
2023-02-02T07:44:54.256Z,65.51
2023-02-02T07:49:57.533Z,65.21
2023-02-02T07:55:14.030Z,65.21
2023-02-02T08:00:18.704Z,65.46
2023-02-02T08:05:23.127Z,65.26
2023-02-02T08:10:28.111Z,65.17
2023-02-02T08:15:31.309Z,65.42
2023-02-02T08:20:34.632Z,64.66
2023-02-02T08:25:39.322Z,64.90
2023-02-02T08:30:42.722Z,65.27
2023-02-02T08:35:47.419Z,65.21
2023-02-02T08:40:52.778Z,64.88
2023-02-02T08:46:02.113Z,63.85
2023-02-02T08:51:09.700Z,63.54
2023-02-02T08:56:16.336Z,62.58
2023-02-02T09:01:21.605Z,61.84
2023-02-02T09:06:27.517Z,61.37
2023-02-02T09:11:32.209Z,61.60
2023-02-02T09:16:36.498Z,61.01
2023-02-02T09:21:40.757Z,60.91
2023-02-02T09:26:46.544Z,59.61
2023-02-02T09:31:49.961Z,60.49
2023-02-02T09:36:54.534Z,59.68
2023-02-02T09:42:40.962Z,59.06
2023-02-02T09:48:11.281Z,58.90
2023-02-02T09:53:22.231Z,58.96
2023-02-02T09:58:32.464Z,58.29
2023-02-02T10:03:42.056Z,58.34
2023-02-02T10:08:50.283Z,57.69
2023-02-02T10:13:58.558Z,57.71
2023-02-02T10:19:05.909Z,57.69
2023-02-02T10:24:17.705Z,57.78
2023-02-02T10:29:48.065Z,57.54
2023-02-02T10:35:18.771Z,57.37
2023-02-02T10:40:38.449Z,57.12
2023-02-02T10:45:45.396Z,56.42
2023-02-02T10:50:51.300Z,56.81
2023-02-02T10:56:01.024Z,56.24
2023-02-02T11:01:08.057Z,55.76
2023-02-02T11:06:32.317Z,55.59
2023-02-02T11:11:40.670Z,55.85
2023-02-02T11:16:46.532Z,55.75
2023-02-02T11:21:51.697Z,55.79
2023-02-02T11:26:55.971Z,55.45
2023-02-02T11:32:18.983Z,54.99
2023-02-02T11:37:23.747Z,54.93
2023-02-02T11:42:27.386Z,54.64
2023-02-02T11:47:34.144Z,54.37
2023-02-02T11:52:40.480Z,53.69
2023-02-02T11:58:19.782Z,53.98
2023-02-02T12:03:32.052Z,53.16
2023-02-02T12:08:35.193Z,53.40
2023-02-02T12:14:01.877Z,52.21
2023-02-02T12:19:46.612Z,52.61
2023-02-02T12:24:56.855Z,51.24
2023-02-02T12:30:13.798Z,51.81
2023-02-02T12:35:47.598Z,49.85
2023-02-02T12:41:11.192Z,49.01
2023-02-02T12:46:28.054Z,46.57
2023-02-02T12:51:54.419Z,44.61
2023-02-02T12:57:08.273Z,42.86
2023-02-02T13:02:25.279Z,41.69
2023-02-02T13:07:36.682Z,41.24
2023-02-02T13:12:44.839Z,40.82
2023-02-02T13:17:52.464Z,40.72
2023-02-02T13:23:00.440Z,40.60
2023-02-02T13:28:07.468Z,39.73
2023-02-02T13:33:18.013Z,40.02
2023-02-02T13:38:24.598Z,40.17
2023-02-02T13:43:39.976Z,40.23
2023-02-02T13:48:54.979Z,39.20
2023-02-02T13:54:23.033Z,39.09
2023-02-02T13:59:49.286Z,39.52
2023-02-02T14:04:57.982Z,38.99
2023-02-02T14:10:04.616Z,38.89
2023-02-02T14:15:13.470Z,39.10
2023-02-02T14:20:41.758Z,39.10
2023-02-02T14:26:06.606Z,38.52
2023-02-02T14:31:27.679Z,39.21
2023-02-02T14:36:31.877Z,38.92
2023-02-02T14:42:23.569Z,38.80
2023-02-02T14:47:55.312Z,39.17
2023-02-02T14:53:02.860Z,38.70
2023-02-02T14:58:08.960Z,38.46
2023-02-02T15:03:36.088Z,39.47
2023-02-02T15:08:39.329Z,38.69
2023-02-02T15:13:46.875Z,38.98
2023-02-02T15:19:00.928Z,39.56
2023-02-02T15:24:06.308Z,39.73
2023-02-02T15:29:20.647Z,39.70
2023-02-02T15:34:28.571Z,39.85
2023-02-02T15:39:35.013Z,39.90
2023-02-02T15:44:40.034Z,40.56
2023-02-02T15:49:43.559Z,40.72
2023-02-02T15:54:54.872Z,40.78
2023-02-02T16:00:00.703Z,40.99
2023-02-02T16:05:04.044Z,41.96
2023-02-02T16:10:09.336Z,42.07
2023-02-02T16:15:22.127Z,42.66
2023-02-02T16:20:25.481Z,42.81
2023-02-02T16:25:32.011Z,43.44
2023-02-02T16:30:39.915Z,44.13
2023-02-02T16:35:43.173Z,44.77
2023-02-02T16:40:46.421Z,44.44
2023-02-02T16:45:53.220Z,45.02
2023-02-02T16:51:10.106Z,45.54
2023-02-02T16:56:25.103Z,45.60
2023-02-02T17:01:39.059Z,46.42
2023-02-02T17:06:52.225Z,45.79
2023-02-02T17:12:01.384Z,46.65
2023-02-02T17:17:07.683Z,46.83
2023-02-02T17:22:11.864Z,48.07
2023-02-02T17:27:18.277Z,48.68
2023-02-02T17:32:23.999Z,49.20
2023-02-02T17:37:27.258Z,50.07
2023-02-02T17:42:31.352Z,50.06
2023-02-02T17:47:37.757Z,50.86
2023-02-02T17:52:41.468Z,50.79
2023-02-02T17:57:47.110Z,51.53
2023-02-02T18:02:56.892Z,51.65
2023-02-02T18:08:00.456Z,51.90
2023-02-02T18:13:03.835Z,51.61
2023-02-02T18:18:08.708Z,52.11
2023-02-02T18:23:12.549Z,52.41
2023-02-02T18:28:17.986Z,52.80
2023-02-02T18:33:23.663Z,52.64
2023-02-02T18:38:26.925Z,52.70
2023-02-02T18:43:30.183Z,52.54
2023-02-02T18:48:34.743Z,53.24
2023-02-02T18:53:38.059Z,52.99
2023-02-02T18:58:42.000Z,53.78
2023-02-02T19:03:50.023Z,54.32
2023-02-02T19:08:53.759Z,53.95
2023-02-02T19:13:57.572Z,54.66
2023-02-02T19:19:09.232Z,55.22
2023-02-02T19:24:13.921Z,56.18
2023-02-02T19:29:20.137Z,57.74
2023-02-02T19:34:24.755Z,59.61
2023-02-02T19:39:31.963Z,60.25
2023-02-02T19:44:36.032Z,60.03
2023-02-02T19:49:40.594Z,60.02
2023-02-02T19:54:45.202Z,60.67
2023-02-02T19:59:51.132Z,60.96
2023-02-02T20:05:03.757Z,61.35
2023-02-02T20:10:19.040Z,61.02
2023-02-02T20:15:26.107Z,61.37
2023-02-02T20:20:35.836Z,61.17
2023-02-02T20:25:38.984Z,60.26
2023-02-02T20:30:42.460Z,61.25
2023-02-02T20:35:47.014Z,61.45
2023-02-02T20:40:52.205Z,63.15
2023-02-02T20:45:55.445Z,61.87
2023-02-02T20:51:00.146Z,61.18
2023-02-02T20:56:03.678Z,61.13
2023-02-02T21:01:07.033Z,61.56
2023-02-02T21:06:11.585Z,63.04
2023-02-02T21:11:14.899Z,64.96
2023-02-02T21:16:18.322Z,65.22
2023-02-02T21:21:23.067Z,63.79
2023-02-02T21:26:30.827Z,62.96
2023-02-02T21:31:35.874Z,63.79
2023-02-02T21:36:43.973Z,64.82
2023-02-02T21:41:47.261Z,65.47
2023-02-02T21:46:52.654Z,65.74
2023-02-02T21:52:00.419Z,65.15
2023-02-02T21:57:06.409Z,64.63
2023-02-02T22:02:30.323Z,65.23
2023-02-02T22:07:34.945Z,65.68
2023-02-02T22:12:38.223Z,65.98
2023-02-02T22:17:43.731Z,66.97
2023-02-02T22:22:51.180Z,66.94
2023-02-02T22:27:57.725Z,68.34
2023-02-02T22:33:01.101Z,68.36
2023-02-02T22:38:06.927Z,67.29
2023-02-02T22:43:10.317Z,66.81
2023-02-02T22:48:14.521Z,67.06
2023-02-02T22:53:19.159Z,66.53
2023-02-02T22:58:22.373Z,66.49
2023-02-02T23:03:25.769Z,66.66
2023-02-02T23:08:30.436Z,66.52
2023-02-02T23:13:33.666Z,66.59
2023-02-02T23:18:36.934Z,66.50
2023-02-02T23:23:41.587Z,66.80
2023-02-02T23:28:44.783Z,66.61
2023-02-02T23:33:48.035Z,67.42
2023-02-02T23:38:52.638Z,67.39
2023-02-02T23:43:56.005Z,66.94
2023-02-02T23:49:00.807Z,67.37
2023-02-02T23:54:05.844Z,68.01
2023-02-02T23:59:09.336Z,67.74
